Time;durP1;ratioP1;P1;durP2;ratioP2;P2;SDS_P1;SDS_P2;PMS_P1;PMS_P2;Temp;Humidity;BMP_temperature;BMP_pressure;BME280_temperature;BME280_humidity;BME280_pressure;Samples;Min_cycle;Max_cycle;Signal;HPM_P1;HPM_P2
2023/04/25 00:02:10;;;;;;;12.57;3.92;;;9.20;99.90;;;;;;5051876;28;20070;-73
2023/04/25 00:04:37;;;;;;;15.20;3.80;;;9.20;99.90;;;;;;5084651;28;20521;-78
2023/04/25 00:07:03;;;;;;;16.13;3.95;;;9.00;99.90;;;;;;5083187;28;20454;-74
2023/04/25 00:09:29;;;;;;;17.38;4.05;;;8.80;99.90;;;;;;5080739;28;20424;-74
2023/04/25 00:11:55;;;;;;;27.10;4.72;;;9.10;99.90;;;;;;5080894;28;20429;-79
2023/04/25 00:14:22;;;;;;;19.92;4.97;;;8.80;99.90;;;;;;5066754;28;20077;-77
2023/04/25 00:16:48;;;;;;;17.60;4.13;;;9.10;99.90;;;;;;5081097;28;20068;-74
2023/04/25 00:19:14;;;;;;;13.05;3.30;;;9.10;99.90;;;;;;5080627;28;20491;-74
2023/04/25 00:21:45;;;;;;;21.25;4.68;;;9.10;99.90;;;;;;5064882;28;20044;-77
2023/04/25 00:24:10;;;;;;;17.10;3.78;;;9.20;99.90;;;;;;5069237;28;20046;-76
2023/04/25 00:26:36;;;;;;;17.88;3.75;;;9.10;99.90;;;;;;5053003;28;20477;-75
2023/04/25 00:29:02;;;;;;;16.98;4.82;;;8.80;99.90;;;;;;5086320;28;20063;-75
2023/04/25 00:31:28;;;;;;;12.70;3.45;;;9.00;99.90;;;;;;5068160;28;20040;-77
2023/04/25 00:33:54;;;;;;;10.13;2.67;;;9.00;99.90;;;;;;5082205;28;20123;-78
2023/04/25 00:36:20;;;;;;;8.93;2.63;;;8.90;99.90;;;;;;5085003;28;20578;-76
2023/04/25 00:38:46;;;;;;;11.32;3.40;;;8.60;99.90;;;;;;5085753;28;20028;-75
2023/04/25 00:41:12;;;;;;;10.02;2.65;;;8.30;99.90;;;;;;5068804;28;20458;-76
2023/04/25 00:43:37;;;;;;;5.30;1.90;;;8.10;99.90;;;;;;5086837;28;20065;-78
2023/04/25 00:46:03;;;;;;;8.43;2.42;;;8.30;99.90;;;;;;5043824;28;20040;-77
2023/04/25 00:48:29;;;;;;;8.23;2.03;;;8.40;99.90;;;;;;5086601;28;20042;-74
2023/04/25 00:50:57;;;;;;;13.98;3.08;;;8.40;99.90;;;;;;5112229;27;20055;-74
2023/04/25 00:53:26;;;;;;;9.70;2.78;;;8.40;99.90;;;;;;5081130;28;20071;-79
2023/04/25 00:55:52;;;;;;;12.52;3.20;;;8.30;99.90;;;;;;5086968;28;20036;-78
2023/04/25 00:58:19;;;;;;;12.48;3.65;;;8.30;99.90;;;;;;5065786;28;20499;-74
2023/04/25 01:00:47;;;;;;;8.18;2.45;;;8.60;99.90;;;;;;5080870;28;20032;-75
2023/04/25 01:03:17;;;;;;;14.77;3.45;;;8.50;99.90;;;;;;5068234;28;20036;-75
2023/04/25 01:05:43;;;;;;;10.73;2.30;;;8.50;99.90;;;;;;5067222;28;20627;-77
2023/04/25 01:08:09;;;;;;;11.07;2.83;;;8.60;99.90;;;;;;5068862;28;20052;-78
2023/04/25 01:10:36;;;;;;;12.18;2.88;;;8.60;99.90;;;;;;5069499;28;20044;-76
2023/04/25 01:13:01;;;;;;;7.63;2.58;;;8.60;99.90;;;;;;5050491;28;20579;-73
2023/04/25 01:15:28;;;;;;;13.07;3.10;;;8.50;99.90;;;;;;5082025;28;20131;-78
2023/04/25 01:17:55;;;;;;;13.88;2.60;;;8.60;99.90;;;;;;5083247;28;20043;-76
2023/04/25 01:20:26;;;;;;;10.57;2.60;;;8.40;99.90;;;;;;5068122;28;20063;-75
2023/04/25 01:22:55;;;;;;;8.55;2.30;;;8.50;99.90;;;;;;5062492;28;20037;-74
2023/04/25 01:25:22;;;;;;;11.00;1.98;;;8.60;99.90;;;;;;5083368;28;20036;-74
2023/04/25 01:27:48;;;;;;;12.77;2.70;;;8.50;99.90;;;;;;5082745;28;20106;-73
2023/04/25 01:30:17;;;;;;;9.63;2.78;;;8.50;99.90;;;;;;5066676;28;20044;-78
2023/04/25 01:32:43;;;;;;;11.68;2.30;;;8.40;99.90;;;;;;5081681;28;20134;-79
2023/04/25 01:35:11;;;;;;;9.57;2.78;;;8.40;99.90;;;;;;5081281;28;20051;-77
2023/04/25 01:37:41;;;;;;;8.05;2.15;;;8.40;99.90;;;;;;5049188;28;20040;-76
2023/04/25 01:40:09;;;;;;;11.63;2.35;;;8.50;99.90;;;;;;5080708;28;20804;-74
2023/04/25 01:42:36;;;;;;;6.00;2.38;;;8.40;99.90;;;;;;5070298;28;20035;-75
2023/04/25 01:45:02;;;;;;;12.00;2.55;;;8.30;99.90;;;;;;5086088;28;20078;-78
2023/04/25 01:47:28;;;;;;;8.70;2.72;;;8.30;99.90;;;;;;5072488;28;20028;-78
2023/04/25 01:49:54;;;;;;;13.15;2.70;;;8.40;99.90;;;;;;5039128;28;20036;-75
2023/04/25 01:52:20;;;;;;;11.18;3.05;;;8.40;99.90;;;;;;5089676;28;20039;-74
2023/04/25 01:54:47;;;;;;;9.45;2.40;;;8.30;99.90;;;;;;5072548;28;20086;-75
2023/04/25 01:57:13;;;;;;;12.27;2.28;;;8.30;99.90;;;;;;5048345;28;20044;-74
2023/04/25 01:59:39;;;;;;;13.68;3.13;;;8.20;99.90;;;;;;5084422;28;20127;-77
2023/04/25 02:02:05;;;;;;;9.13;2.65;;;8.30;99.90;;;;;;5087699;28;20040;-74
2023/04/25 02:04:31;;;;;;;15.95;2.75;;;8.20;99.90;;;;;;5072536;28;20059;-72
2023/04/25 02:06:57;;;;;;;15.25;3.17;;;8.30;99.90;;;;;;5122723;27;20032;-73
2023/04/25 02:09:23;;;;;;;13.27;3.10;;;8.20;99.90;;;;;;5087125;28;20047;-77
2023/04/25 02:11:49;;;;;;;13.77;2.38;;;8.20;99.90;;;;;;5089102;28;20131;-77
2023/04/25 02:14:14;;;;;;;10.45;2.50;;;8.30;99.90;;;;;;5089598;28;20138;-75
2023/04/25 02:16:40;;;;;;;10.15;2.70;;;9.30;99.90;;;;;;5071566;28;20040;-74
2023/04/25 02:19:06;;;;;;;10.45;2.72;;;8.50;99.90;;;;;;5086843;28;20489;-74
2023/04/25 02:21:32;;;;;;;13.93;3.47;;;8.20;99.90;;;;;;5070348;28;20158;-75
2023/04/25 02:23:58;;;;;;;15.30;2.92;;;8.40;99.90;;;;;;5062432;28;20040;-77
2023/04/25 02:26:24;;;;;;;15.35;2.63;;;8.10;99.90;;;;;;5082241;28;20418;-77
2023/04/25 02:28:50;;;;;;;17.75;3.58;;;7.70;99.90;;;;;;5080847;28;20131;-76
2023/04/25 02:31:16;;;;;;;17.60;3.00;;;7.70;99.90;;;;;;5067205;28;20036;-73
2023/04/25 02:33:42;;;;;;;12.90;3.50;;;7.80;99.90;;;;;;5086238;28;20649;-78
2023/04/25 02:36:08;;;;;;;9.27;2.63;;;7.80;99.90;;;;;;5064742;28;20135;-74
2023/04/25 02:38:33;;;;;;;10.90;2.58;;;8.00;99.90;;;;;;5066867;28;20565;-77
2023/04/25 02:40:59;;;;;;;11.32;2.60;;;8.00;99.90;;;;;;5065903;28;20037;-73
2023/04/25 02:43:25;;;;;;;11.25;3.42;;;8.10;99.90;;;;;;5070941;28;20063;-76
2023/04/25 02:45:51;;;;;;;12.93;2.15;;;8.20;99.90;;;;;;5097919;28;20033;-74
2023/04/25 02:48:16;;;;;;;9.75;2.30;;;8.00;99.90;;;;;;5070652;28;20060;-78
2023/04/25 02:50:42;;;;;;;12.75;3.63;;;7.80;99.90;;;;;;5052818;28;20111;-77
2023/04/25 02:53:08;;;;;;;8.55;2.42;;;8.10;99.90;;;;;;5065529;28;20043;-76
2023/04/25 02:55:34;;;;;;;8.55;2.15;;;8.00;99.90;;;;;;5065367;28;20583;-79
2023/04/25 02:57:59;;;;;;;9.38;2.45;;;8.00;99.90;;;;;;5066546;28;20122;-74
2023/04/25 03:00:25;;;;;;;10.02;2.13;;;8.00;99.90;;;;;;5083722;28;20485;-75
2023/04/25 03:02:51;;;;;;;11.50;2.88;;;7.60;99.90;;;;;;5074359;28;20040;-76
2023/04/25 03:05:17;;;;;;;8.52;2.30;;;7.60;99.90;;;;;;5081298;28;20028;-79
2023/04/25 03:07:43;;;;;;;8.27;3.03;;;7.50;99.90;;;;;;5048699;28;20036;-77
2023/04/25 03:10:10;;;;;;;11.88;2.05;;;7.60;99.90;;;;;;5048547;28;20155;-74
2023/04/25 03:12:36;;;;;;;10.40;3.10;;;7.50;99.90;;;;;;5067276;28;20054;-71
2023/04/25 03:15:02;;;;;;;8.82;2.35;;;7.40;99.90;;;;;;5084038;28;20044;-74
2023/04/25 03:17:27;;;;;;;7.95;2.47;;;7.60;99.90;;;;;;5083529;28;20047;-78
2023/04/25 03:19:54;;;;;;;7.28;1.85;;;7.30;99.90;;;;;;5081335;28;20095;-77
2023/04/25 03:22:25;;;;;;;8.90;2.42;;;7.50;99.90;;;;;;5085506;28;20118;-77
2023/04/25 03:24:51;;;;;;;9.90;1.90;;;7.30;99.90;;;;;;5081537;28;20040;-75
2023/04/25 03:27:17;;;;;;;12.27;2.63;;;7.60;99.90;;;;;;5047916;28;20372;-78
2023/04/25 03:29:43;;;;;;;7.38;2.30;;;7.20;99.90;;;;;;5118409;27;20040;-76
2023/04/25 03:32:09;;;;;;;7.20;1.85;;;7.50;99.90;;;;;;5051150;28;20040;-75
2023/04/25 03:34:35;;;;;;;8.77;2.47;;;7.30;99.90;;;;;;5064723;28;20036;-77
2023/04/25 03:37:01;;;;;;;8.15;2.05;;;7.40;99.90;;;;;;5068515;28;20527;-74
2023/04/25 03:39:26;;;;;;;9.27;2.15;;;7.20;99.90;;;;;;5080820;28;20043;-75
2023/04/25 03:41:52;;;;;;;10.15;2.58;;;7.30;99.90;;;;;;5065921;28;20046;-75
2023/04/25 03:44:21;;;;;;;9.43;2.20;;;8.00;99.90;;;;;;5063309;28;20040;-74
2023/04/25 03:46:47;;;;;;;9.82;2.63;;;7.20;99.90;;;;;;5073570;28;20055;-74
2023/04/25 03:49:13;;;;;;;10.05;2.55;;;7.00;99.90;;;;;;5109880;28;20598;-71
2023/04/25 03:51:39;;;;;;;7.35;2.45;;;7.00;99.90;;;;;;5095254;28;20047;-73
2023/04/25 03:54:05;;;;;;;7.03;1.73;;;7.30;99.90;;;;;;5055205;28;20037;-79
2023/04/25 03:56:30;;;;;;;7.90;1.90;;;7.10;99.90;;;;;;5088221;28;20395;-76
2023/04/25 03:58:56;;;;;;;6.53;2.47;;;7.20;99.90;;;;;;5072561;28;20090;-73
2023/04/25 04:01:22;;;;;;;8.82;2.15;;;7.40;99.90;;;;;;5084004;28;20376;-76
2023/04/25 04:03:48;;;;;;;10.77;2.95;;;7.10;99.90;;;;;;5050116;28;20040;-76
2023/04/25 04:06:13;;;;;;;9.20;2.35;;;7.30;99.90;;;;;;5116219;27;20071;-74
2023/04/25 04:08:39;;;;;;;11.20;2.40;;;7.30;99.90;;;;;;5048002;28;20047;-72
2023/04/25 04:11:04;;;;;;;10.15;2.33;;;7.00;99.90;;;;;;5062081;28;20048;-74
2023/04/25 04:13:30;;;;;;;9.75;2.70;;;7.00;99.90;;;;;;5065016;28;20050;-78
2023/04/25 04:15:57;;;;;;;8.35;1.95;;;7.10;99.90;;;;;;5062972;28;20072;-78
2023/04/25 04:18:23;;;;;;;7.60;2.03;;;6.90;99.90;;;;;;5079879;28;20039;-72
2023/04/25 04:20:48;;;;;;;7.80;2.22;;;6.90;99.90;;;;;;5099615;28;21971;-75
2023/04/25 04:23:14;;;;;;;10.77;2.63;;;7.00;99.90;;;;;;5082322;28;20154;-75
2023/04/25 04:25:40;;;;;;;6.30;2.30;;;6.90;99.90;;;;;;5082379;28;20635;-73
2023/04/25 04:28:06;;;;;;;6.53;1.80;;;6.80;99.90;;;;;;5080446;28;20071;-81
2023/04/25 04:30:36;;;;;;;8.70;2.10;;;6.80;99.90;;;;;;5085401;28;20095;-74
2023/04/25 04:33:02;;;;;;;10.57;2.42;;;6.90;99.90;;;;;;5098394;28;20051;-76
2023/04/25 04:35:28;;;;;;;13.35;2.42;;;6.80;99.90;;;;;;5105100;28;20131;-76
2023/04/25 04:37:54;;;;;;;11.60;2.20;;;7.00;99.90;;;;;;5082407;28;20054;-77
2023/04/25 04:40:21;;;;;;;9.32;2.38;;;6.60;99.90;;;;;;5040975;28;20040;-78
2023/04/25 04:42:47;;;;;;;10.02;2.22;;;6.60;99.90;;;;;;5100479;28;20048;-73
2023/04/25 04:45:14;;;;;;;11.98;2.10;;;6.50;99.90;;;;;;5067443;28;20040;-80
2023/04/25 04:47:40;;;;;;;9.52;2.33;;;6.50;99.90;;;;;;5114659;27;20047;-78
2023/04/25 04:50:10;;;;;;;8.32;2.10;;;6.70;99.90;;;;;;5070689;28;20181;-73
2023/04/25 04:52:37;;;;;;;7.75;2.13;;;6.40;99.90;;;;;;5098733;28;20494;-74
2023/04/25 04:55:05;;;;;;;8.00;2.10;;;6.30;99.90;;;;;;5096255;28;20051;-77
2023/04/25 04:57:32;;;;;;;14.95;2.40;;;6.50;99.90;;;;;;5062582;28;20500;-77
2023/04/25 04:59:59;;;;;;;10.23;2.13;;;6.70;99.90;;;;;;5082269;28;20040;-75
2023/04/25 05:02:25;;;;;;;14.82;2.60;;;6.90;99.90;;;;;;5050474;28;20055;-75
2023/04/25 05:04:52;;;;;;;8.35;2.20;;;7.00;99.90;;;;;;5057089;28;20432;-75
2023/04/25 05:07:18;;;;;;;9.27;1.70;;;7.00;99.90;;;;;;5069827;28;20040;-73
2023/04/25 05:09:44;;;;;;;10.13;2.38;;;6.90;99.90;;;;;;5092409;28;20054;-76
2023/04/25 05:12:10;;;;;;;6.13;1.80;;;7.10;99.90;;;;;;5100078;28;20047;-73
2023/04/25 05:14:36;;;;;;;10.40;2.25;;;6.90;99.90;;;;;;5104393;28;20596;-79
2023/04/25 05:17:04;;;;;;;11.60;2.85;;;6.60;99.90;;;;;;5067604;28;20040;-78
2023/04/25 05:19:30;;;;;;;7.88;1.85;;;7.00;99.90;;;;;;5066168;28;20076;-76
2023/04/25 05:21:56;;;;;;;8.23;1.75;;;6.70;99.90;;;;;;5082407;28;20391;-77
2023/04/25 05:24:22;;;;;;;5.85;2.15;;;7.10;99.90;;;;;;5064989;28;20028;-78
2023/04/25 05:26:47;;;;;;;3.47;1.45;;;7.30;99.90;;;;;;5100374;28;20035;-76
2023/04/25 05:29:13;;;;;;;5.15;1.42;;;7.20;99.90;;;;;;5099304;28;20062;-76
2023/04/25 05:31:39;;;;;;;6.47;1.50;;;7.10;99.90;;;;;;5098541;28;20044;-74
2023/04/25 05:34:04;;;;;;;4.10;1.42;;;7.00;99.90;;;;;;5086283;28;20496;-78
2023/04/25 05:36:32;;;;;;;3.03;1.33;;;7.20;99.90;;;;;;5084258;28;20441;-73
2023/04/25 05:38:58;;;;;;;16.92;2.65;;;7.10;99.90;;;;;;5101049;28;20040;-77
2023/04/25 05:41:23;;;;;;;3.15;1.25;;;7.20;99.90;;;;;;5104311;28;20092;-76
2023/04/25 05:43:49;;;;;;;3.83;1.20;;;7.20;99.90;;;;;;5083947;28;20103;-74
2023/04/25 05:46:16;;;;;;;4.55;1.67;;;7.40;99.90;;;;;;5062623;28;20079;-74
2023/04/25 05:48:43;;;;;;;7.18;1.95;;;7.50;99.90;;;;;;5086462;28;20082;-74
2023/04/25 05:51:09;;;;;;;4.10;1.63;;;7.50;99.90;;;;;;5091135;28;20039;-77
2023/04/25 05:53:35;;;;;;;3.97;1.20;;;7.50;99.90;;;;;;5073466;28;20063;-78
2023/04/25 05:56:01;;;;;;;11.30;2.22;;;7.70;99.90;;;;;;5072839;28;20068;-79
2023/04/25 05:58:26;;;;;;;5.80;1.33;;;7.80;99.90;;;;;;5073371;28;20180;-80
2023/04/25 06:00:52;;;;;;;8.13;1.80;;;7.50;99.90;;;;;;5074244;28;20118;-75
2023/04/25 06:03:18;;;;;;;3.58;1.77;;;6.90;99.90;;;;;;5086310;28;20047;-76
2023/04/25 06:05:44;;;;;;;6.07;1.98;;;6.60;99.90;;;;;;5104027;28;20080;-76
2023/04/25 06:08:10;;;;;;;7.43;1.83;;;6.50;99.90;;;;;;5090258;28;20039;-76
2023/04/25 06:10:37;;;;;;;7.50;1.65;;;6.70;99.90;;;;;;5091757;28;20035;-76
2023/04/25 06:13:03;;;;;;;4.63;1.55;;;7.30;99.90;;;;;;5070957;28;20566;-76
2023/04/25 06:15:29;;;;;;;7.45;1.80;;;7.10;99.90;;;;;;5057209;28;20044;-76
2023/04/25 06:17:56;;;;;;;6.80;1.88;;;7.20;99.90;;;;;;5057924;28;20517;-76
2023/04/25 06:20:23;;;;;;;6.85;1.95;;;7.30;99.90;;;;;;5106892;28;20505;-75
2023/04/25 06:22:50;;;;;;;5.97;1.70;;;7.60;99.90;;;;;;5093481;28;20023;-73
2023/04/25 06:25:16;;;;;;;4.85;1.40;;;7.90;99.90;;;;;;5046951;28;20090;-74
2023/04/25 06:27:41;;;;;;;8.02;1.92;;;7.80;99.90;;;;;;5091892;28;20589;-74
2023/04/25 06:30:07;;;;;;;6.72;1.38;;;7.70;99.90;;;;;;5095157;28;20131;-75
2023/04/25 06:32:34;;;;;;;7.43;1.40;;;7.80;99.90;;;;;;5076579;28;20039;-75
2023/04/25 06:35:00;;;;;;;4.70;1.40;;;8.00;99.90;;;;;;5064384;28;20140;-77
2023/04/25 06:37:26;;;;;;;4.43;1.63;;;8.10;99.90;;;;;;5074203;28;20036;-76
2023/04/25 06:39:52;;;;;;;3.42;1.30;;;8.50;99.90;;;;;;5086163;28;20388;-75
2023/04/25 06:42:17;;;;;;;4.15;1.30;;;9.00;99.90;;;;;;5078764;28;20393;-76
2023/04/25 06:44:43;;;;;;;5.85;1.30;;;8.50;99.90;;;;;;5072844;28;20039;-75
2023/04/25 06:47:09;;;;;;;5.07;1.58;;;9.10;99.90;;;;;;5110332;27;20062;-77
2023/04/25 06:49:34;;;;;;;6.63;1.90;;;9.00;99.90;;;;;;5048828;28;20132;-76
2023/04/25 06:52:03;;;;;;;4.28;1.42;;;9.40;99.90;;;;;;5072718;28;20035;-78
2023/04/25 06:54:29;;;;;;;6.25;1.98;;;9.70;99.90;;;;;;5074632;28;21460;-81
2023/04/25 06:56:56;;;;;;;4.68;1.45;;;9.60;99.90;;;;;;5093396;28;20442;-76
2023/04/25 06:59:21;;;;;;;4.72;1.60;;;10.00;99.90;;;;;;5092793;28;20048;-72
2023/04/25 07:01:47;;;;;;;13.35;2.30;;;9.80;99.90;;;;;;5093309;28;20626;-76
2023/04/25 07:04:13;;;;;;;6.38;1.20;;;9.50;99.90;;;;;;5071220;28;20043;-80
2023/04/25 07:06:42;;;;;;;8.57;1.40;;;9.10;99.90;;;;;;5075104;28;20031;-79
2023/04/25 07:09:11;;;;;;;4.38;1.10;;;8.80;99.90;;;;;;5074424;28;20061;-74
2023/04/25 07:11:37;;;;;;;7.63;1.77;;;9.90;99.90;;;;;;5073231;28;20039;-78
2023/04/25 07:14:03;;;;;;;4.10;1.23;;;8.80;99.90;;;;;;5108732;28;20054;-80
2023/04/25 07:16:32;;;;;;;5.72;1.15;;;9.00;99.90;;;;;;5074675;28;20040;-76
2023/04/25 07:18:59;;;;;;;5.53;1.60;;;8.80;99.90;;;;;;5110088;27;20051;-75
2023/04/25 07:21:25;;;;;;;4.95;1.50;;;9.00;99.90;;;;;;5075277;28;20408;-78
2023/04/25 07:23:51;;;;;;;4.57;1.50;;;9.10;99.90;;;;;;5090523;28;20039;-77
2023/04/25 07:26:16;;;;;;;6.88;1.52;;;9.20;99.90;;;;;;5080556;28;20122;-77
2023/04/25 07:28:43;;;;;;;6.00;1.70;;;9.30;99.90;;;;;;5088704;28;20044;-78
2023/04/25 07:31:08;;;;;;;6.22;1.50;;;9.20;99.90;;;;;;5114308;27;20058;-77
2023/04/25 07:33:34;;;;;;;9.45;1.60;;;9.80;99.90;;;;;;5087643;28;20147;-78
2023/04/25 07:36:00;;;;;;;6.95;1.48;;;9.90;99.90;;;;;;5107792;28;20046;-75
2023/04/25 07:38:28;;;;;;;4.50;1.05;;;10.10;99.90;;;;;;5062927;28;20035;-76
2023/04/25 07:40:54;;;;;;;6.43;1.45;;;10.30;99.90;;;;;;5058223;28;20078;-78
2023/04/25 07:43:20;;;;;;;6.35;1.40;;;10.10;99.90;;;;;;5092079;28;20070;-78
2023/04/25 07:45:46;;;;;;;9.20;1.65;;;10.00;99.90;;;;;;5110347;27;20031;-75
2023/04/25 07:48:17;;;;;;;5.03;1.50;;;9.80;99.90;;;;;;5087006;28;20035;-76
2023/04/25 07:50:43;;;;;;;3.10;0.90;;;9.60;99.90;;;;;;5086987;28;20035;-74
2023/04/25 07:53:09;;;;;;;4.78;1.38;;;9.50;99.90;;;;;;5082821;28;20092;-77
2023/04/25 07:55:36;;;;;;;5.28;1.13;;;9.30;99.90;;;;;;5075451;28;20044;-80
2023/04/25 07:58:02;;;;;;;6.88;1.60;;;9.30;99.90;;;;;;5067178;28;20789;-77
2023/04/25 08:00:28;;;;;;;4.93;1.08;;;9.30;99.90;;;;;;5073844;28;20043;-76
2023/04/25 08:02:54;;;;;;;6.72;1.40;;;9.30;99.90;;;;;;5075338;28;20610;-75
2023/04/25 08:05:20;;;;;;;5.93;1.48;;;9.50;99.90;;;;;;5092774;28;20119;-76
2023/04/25 08:07:45;;;;;;;7.85;1.73;;;9.70;99.90;;;;;;5071085;28;20104;-79
2023/04/25 08:10:11;;;;;;;7.93;2.08;;;9.80;99.90;;;;;;5123745;27;20058;-75
2023/04/25 08:12:37;;;;;;;7.35;1.42;;;10.10;99.90;;;;;;5091236;28;20043;-76
2023/04/25 08:15:03;;;;;;;5.45;1.20;;;10.30;99.90;;;;;;5092396;28;20083;-76
2023/04/25 08:17:29;;;;;;;8.50;1.80;;;10.30;99.90;;;;;;5057954;28;20066;-77
2023/04/25 08:19:56;;;;;;;3.45;0.80;;;10.20;99.90;;;;;;5084867;28;20056;-72
2023/04/25 08:22:22;;;;;;;3.80;1.15;;;8.70;99.90;;;;;;5072111;28;20043;-75
2023/04/25 08:24:48;;;;;;;4.28;0.93;;;7.50;99.90;;;;;;5088488;28;20040;-79
2023/04/25 08:27:14;;;;;;;2.10;1.00;;;7.60;99.90;;;;;;5088188;28;20036;-75
2023/04/25 08:29:41;;;;;;;2.38;0.85;;;6.70;99.90;;;;;;5061310;28;20032;-81
2023/04/25 08:32:06;;;;;;;3.65;1.08;;;7.10;99.90;;;;;;5052340;28;20602;-76
2023/04/25 08:34:32;;;;;;;2.22;0.82;;;7.30;99.90;;;;;;5051145;28;20044;-75
2023/04/25 08:36:58;;;;;;;5.50;1.63;;;7.90;99.90;;;;;;5051240;28;20040;-77
2023/04/25 08:39:24;;;;;;;3.05;1.17;;;8.00;99.90;;;;;;5061320;28;20408;-75
2023/04/25 08:41:53;;;;;;;3.22;1.45;;;8.20;99.90;;;;;;5071229;28;20044;-78
2023/04/25 08:44:22;;;;;;;5.03;1.27;;;8.40;99.90;;;;;;5070842;28;20036;-77
2023/04/25 08:46:49;;;;;;;3.70;1.00;;;8.40;99.90;;;;;;5054062;28;20044;-81
2023/04/25 08:49:18;;;;;;;1.60;0.85;;;8.80;99.90;;;;;;5070688;28;20058;-77
2023/04/25 08:51:47;;;;;;;1.95;0.90;;;9.20;99.90;;;;;;5051546;28;20131;-83
2023/04/25 08:54:14;;;;;;;2.15;1.05;;;9.40;99.90;;;;;;5045265;28;20047;-79
2023/04/25 08:56:47;;;;;;;2.65;1.23;;;9.20;99.90;;;;;;5036059;28;20083;-78
2023/04/25 08:59:13;;;;;;;4.53;0.95;;;9.40;99.90;;;;;;5084330;28;20098;-80
2023/04/25 09:01:39;;;;;;;5.57;1.00;;;9.70;99.90;;;;;;5085609;28;20032;-80
2023/04/25 09:04:05;;;;;;;3.17;1.10;;;9.70;99.90;;;;;;5070477;28;20048;-79
2023/04/25 09:06:31;;;;;;;4.28;1.35;;;9.70;99.90;;;;;;5107561;28;20125;-82
2023/04/25 09:09:05;;;;;;;9.60;1.38;;;10.70;99.90;;;;;;5084282;28;20040;-79
2023/04/25 09:11:31;;;;;;;5.88;1.50;;;10.80;99.90;;;;;;5057921;28;20032;-80
2023/04/25 09:14:11;;;;;;;7.57;1.45;;;10.80;99.90;;;;;;5067431;28;20102;-78
2023/04/25 09:16:57;;;;;;;6.05;1.10;;;11.20;99.90;;;;;;5034841;28;20048;-82
2023/04/25 09:19:31;;;;;;;5.38;1.45;;;11.20;99.90;;;;;;5072066;28;20114;-81
2023/04/25 09:22:02;;;;;;;3.57;1.20;;;11.60;99.90;;;;;;5051650;28;20051;-79
2023/04/25 09:24:38;;;;;;;6.43;1.50;;;11.50;99.90;;;;;;5050489;28;20056;-78
2023/04/25 09:27:09;;;;;;;6.18;1.85;;;10.90;99.90;;;;;;5067304;28;20047;-77
2023/04/25 09:29:37;;;;;;;4.63;1.55;;;11.30;99.90;;;;;;5051041;28;20036;-74
2023/04/25 09:32:22;;;;;;;6.45;1.50;;;11.60;99.90;;;;;;5084211;28;20048;-79
2023/04/25 09:34:56;;;;;;;1.20;0.88;;;11.50;99.90;;;;;;5070110;28;20114;-74
2023/04/25 09:37:27;;;;;;;3.67;1.08;;;10.50;99.90;;;;;;5086880;28;20059;-76
2023/04/25 09:39:55;;;;;;;1.65;1.05;;;9.60;99.90;;;;;;5067313;28;20078;-75
2023/04/25 09:42:28;;;;;;;4.15;1.30;;;9.10;99.90;;;;;;5078050;28;20079;-75
2023/04/25 09:44:55;;;;;;;4.03;1.20;;;9.20;99.90;;;;;;5051130;28;20131;-75
2023/04/25 09:47:23;;;;;;;4.57;1.35;;;9.40;99.90;;;;;;5050144;28;20041;-74
2023/04/25 09:49:51;;;;;;;3.88;1.25;;;9.70;99.90;;;;;;5066950;28;20048;-78
2023/04/25 09:52:21;;;;;;;4.55;1.25;;;10.10;99.90;;;;;;5080897;28;20397;-77
2023/04/25 09:54:49;;;;;;;5.85;1.27;;;10.60;99.90;;;;;;5085701;28;20040;-73
2023/04/25 09:57:23;;;;;;;7.05;1.80;;;10.70;99.90;;;;;;5089300;28;20480;-72
2023/04/25 09:59:50;;;;;;;6.63;1.67;;;10.60;99.90;;;;;;5106901;28;20051;-77
2023/04/25 10:02:25;;;;;;;4.63;1.70;;;11.00;99.90;;;;;;5063749;28;20044;-76
2023/04/25 10:04:54;;;;;;;9.00;1.92;;;11.50;99.90;;;;;;5074179;28;20062;-73
2023/04/25 10:07:25;;;;;;;6.25;1.20;;;12.00;99.90;;;;;;5074598;28;20072;-73
2023/04/25 10:10:02;;;;;;;3.70;1.00;;;11.60;99.90;;;;;;5090145;28;20047;-74
2023/04/25 10:12:30;;;;;;;7.47;1.77;;;11.40;99.90;;;;;;5073665;28;20074;-78
2023/04/25 10:14:57;;;;;;;9.60;1.50;;;11.70;99.90;;;;;;5090294;28;20044;-76
2023/04/25 10:17:24;;;;;;;7.10;2.13;;;12.10;99.90;;;;;;5096213;28;20040;-76
2023/04/25 10:19:51;;;;;;;2.83;0.80;;;11.50;99.90;;;;;;5092903;28;20052;-79
2023/04/25 10:22:25;;;;;;;6.25;1.42;;;10.00;99.90;;;;;;5091121;28;20075;-78
2023/04/25 10:24:52;;;;;;;1.48;0.80;;;9.10;99.90;;;;;;5090674;28;20036;-75
2023/04/25 10:27:18;;;;;;;2.15;0.85;;;7.60;99.90;;;;;;5073589;28;20402;-75
2023/04/25 10:29:44;;;;;;;2.38;0.85;;;7.20;99.90;;;;;;5090301;28;20380;-83
2023/04/25 10:32:10;;;;;;;4.68;1.27;;;7.20;99.90;;;;;;5072077;28;20039;-80
2023/04/25 10:34:46;;;;;;;3.92;1.30;;;7.50;99.90;;;;;;5060297;28;20040;-83
2023/04/25 10:37:12;;;;;;;4.38;1.30;;;7.50;99.90;;;;;;5054080;28;20141;-80
2023/04/25 10:39:42;;;;;;;3.75;1.10;;;8.50;99.90;;;;;;5061507;28;20051;-82
2023/04/25 10:42:08;;;;;;;5.03;1.40;;;8.90;99.90;;;;;;5073356;28;20073;-81
2023/04/25 10:44:34;;;;;;;7.35;1.60;;;9.70;99.90;;;;;;5056053;28;20123;-85
2023/04/25 10:47:03;;;;;;;6.80;1.60;;;10.10;99.90;;;;;;5073823;28;20160;-83
2023/04/25 10:49:42;;;;;;;5.28;1.35;;;10.50;99.90;;;;;;5074421;28;20039;-81
2023/04/25 10:52:22;;;;;;;4.15;1.50;;;10.80;99.90;;;;;;5074028;28;20070;-83
2023/04/25 10:54:56;;;;;;;4.72;1.15;;;11.00;99.90;;;;;;5088671;28;20044;-87
2023/04/25 10:57:29;;;;;;;7.30;2.72;;;10.60;99.90;;;;;;5074451;28;20520;-84
2023/04/25 10:59:59;;;;;;;5.57;1.67;;;10.60;99.90;;;;;;5074254;28;20048;-81
2023/04/25 11:02:29;;;;;;;5.47;1.67;;;10.30;99.90;;;;;;5057957;28;20550;-77
2023/04/25 11:04:55;;;;;;;7.68;1.70;;;9.80;99.90;;;;;;5072381;28;20043;-81
2023/04/25 11:07:35;;;;;;;5.80;1.52;;;9.90;99.90;;;;;;5073029;28;20062;-80
2023/04/25 11:10:04;;;;;;;8.13;1.95;;;10.50;99.90;;;;;;5089799;28;20415;-79
2023/04/25 11:12:31;;;;;;;11.65;2.55;;;11.00;99.90;;;;;;5055748;28;20051;-75
2023/04/25 11:15:05;;;;;;;3.92;1.20;;;11.30;99.90;;;;;;5086595;28;20039;-77
2023/04/25 11:17:31;;;;;;;4.43;1.30;;;11.80;99.90;;;;;;5073889;28;20032;-80
2023/04/25 11:19:58;;;;;;;5.63;1.25;;;11.70;99.90;;;;;;5070491;28;20060;-75
2023/04/25 11:22:24;;;;;;;7.72;1.48;;;12.30;99.90;;;;;;5079650;28;20052;-76
2023/04/25 11:24:50;;;;;;;2.00;1.25;;;12.10;99.90;;;;;;5109476;28;20044;-75
2023/04/25 11:27:16;;;;;;;4.30;1.15;;;11.80;99.90;;;;;;5053234;28;20051;-77
2023/04/25 11:29:47;;;;;;;4.40;1.20;;;11.20;99.90;;;;;;5068870;28;20044;-79
2023/04/25 11:32:15;;;;;;;6.65;1.50;;;11.20;94.40;;;;;;5105620;28;20043;-75
2023/04/25 11:34:44;;;;;;;4.80;1.40;;;11.30;99.90;;;;;;5071763;28;20085;-74
2023/04/25 11:37:11;;;;;;;4.32;1.17;;;11.80;99.90;;;;;;5071935;28;20044;-77
2023/04/25 11:39:37;;;;;;;5.10;0.90;;;11.80;99.90;;;;;;5087697;28;20059;-77
2023/04/25 11:42:05;;;;;;;3.38;1.35;;;11.90;99.90;;;;;;5091781;28;20046;-77
2023/04/25 11:44:31;;;;;;;5.75;1.83;;;12.40;99.90;;;;;;5089144;28;20624;-78
2023/04/25 11:46:57;;;;;;;6.80;1.77;;;12.10;99.90;;;;;;5071847;28;20131;-77
2023/04/25 11:49:24;;;;;;;3.30;1.30;;;12.60;99.90;;;;;;5088789;28;20550;-76
2023/04/25 11:51:50;;;;;;;4.22;1.63;;;12.10;99.90;;;;;;5053802;28;20054;-77
2023/04/25 11:54:16;;;;;;;2.63;1.27;;;12.70;99.90;;;;;;5088668;28;20047;-74
2023/04/25 11:56:45;;;;;;;3.50;1.40;;;12.40;99.90;;;;;;5055504;28;20052;-77
2023/04/25 11:59:12;;;;;;;2.95;1.15;;;11.90;99.90;;;;;;5054970;28;21087;-78
2023/04/25 12:01:40;;;;;;;4.88;1.45;;;12.10;99.90;;;;;;5085039;28;20036;-78
2023/04/25 12:04:16;;;;;;;5.38;1.30;;;12.00;99.90;;;;;;5062226;28;20036;-75
2023/04/25 12:06:43;;;;;;;4.70;1.08;;;11.90;99.90;;;;;;5052164;28;20043;-80
2023/04/25 12:09:11;;;;;;;3.00;1.40;;;11.30;99.90;;;;;;5052373;28;20094;-78
2023/04/25 12:11:43;;;;;;;5.00;1.52;;;11.50;99.90;;;;;;5068668;28;20041;-75
2023/04/25 12:14:09;;;;;;;5.32;1.55;;;12.00;99.90;;;;;;5068315;28;20043;-80
2023/04/25 12:16:45;;;;;;;5.15;1.38;;;12.30;99.90;;;;;;5106204;28;20039;-77
2023/04/25 12:19:15;;;;;;;4.03;1.30;;;12.00;99.90;;;;;;5078417;28;20539;-80
2023/04/25 12:21:41;;;;;;;4.43;1.20;;;12.20;99.90;;;;;;5105206;28;20084;-77
2023/04/25 12:24:18;;;;;;;4.47;1.25;;;11.60;99.90;;;;;;5070143;28;20140;-78
2023/04/25 12:26:54;;;;;;;4.60;1.38;;;11.20;99.90;;;;;;5072070;28;20067;-74
2023/04/25 12:29:25;;;;;;;3.85;1.08;;;10.90;99.90;;;;;;5070856;28;20044;-77
2023/04/25 12:31:54;;;;;;;4.75;1.40;;;11.10;99.90;;;;;;5088959;28;20044;-79
2023/04/25 12:34:21;;;;;;;4.82;1.40;;;11.80;99.90;;;;;;5074508;28;20047;-75
2023/04/25 12:36:47;;;;;;;3.70;1.30;;;12.00;99.90;;;;;;5091393;28;20036;-75
2023/04/25 12:39:23;;;;;;;3.65;1.00;;;12.00;99.90;;;;;;5090893;28;20662;-79
2023/04/25 12:41:52;;;;;;;6.57;1.45;;;11.50;99.90;;;;;;5082880;28;20043;-77
2023/04/25 12:44:17;;;;;;;2.97;1.02;;;11.10;99.90;;;;;;5075986;28;20059;-75
2023/04/25 12:46:43;;;;;;;4.72;1.23;;;10.80;99.90;;;;;;5071172;28;20040;-75
2023/04/25 12:49:09;;;;;;;3.35;1.27;;;10.90;99.90;;;;;;5053891;28;20062;-73
2023/04/25 12:51:36;;;;;;;7.65;2.20;;;11.60;99.90;;;;;;5046775;28;20122;-73
2023/04/25 12:54:10;;;;;;;3.72;1.08;;;11.70;99.90;;;;;;5073715;28;20043;-77